Time;durP1;ratioP1;P1;durP2;ratioP2;P2;SDS_P1;SDS_P2;PMS_P1;PMS_P2;Temp;Humidity;BMP_temperature;BMP_pressure;BME280_temperature;BME280_humidity;BME280_pressure;Samples;Min_cycle;Max_cycle;Signal;HPM_P1;HPM_P2
2023/01/26 00:01:21;;;;;;;117.72;44.72;;;1.70;91.80;;;;;;5043704;28;20033;-77
2023/01/26 00:03:47;;;;;;;118.20;44.83;;;1.70;91.90;;;;;;5041656;28;20083;-78
2023/01/26 00:06:15;;;;;;;119.93;44.42;;;1.70;91.90;;;;;;5042160;28;20064;-77
2023/01/26 00:08:46;;;;;;;114.80;44.03;;;1.70;91.90;;;;;;5041289;28;20329;-78
2023/01/26 00:11:15;;;;;;;120.07;46.80;;;1.70;91.90;;;;;;5039381;28;20033;-76
2023/01/26 00:13:41;;;;;;;120.90;47.10;;;1.70;91.90;;;;;;5040986;28;20346;-78
2023/01/26 00:16:10;;;;;;;107.55;45.70;;;1.70;91.80;;;;;;5047696;28;20059;-78
2023/01/26 00:18:37;;;;;;;119.68;45.70;;;1.70;91.80;;;;;;5049288;28;20024;-77
2023/01/26 00:21:03;;;;;;;114.93;45.63;;;1.70;91.90;;;;;;5043214;28;20462;-76
2023/01/26 00:23:31;;;;;;;117.10;45.78;;;1.70;92.00;;;;;;5045779;28;20033;-76
2023/01/26 00:25:57;;;;;;;116.45;45.20;;;1.70;91.90;;;;;;5044160;28;20372;-77
2023/01/26 00:28:22;;;;;;;103.32;42.60;;;1.70;92.00;;;;;;5044603;28;20634;-77
2023/01/26 00:30:48;;;;;;;107.85;43.20;;;1.70;92.00;;;;;;5040955;28;20025;-77
2023/01/26 00:33:15;;;;;;;121.55;46.00;;;1.70;92.00;;;;;;5045214;28;20376;-76
2023/01/26 00:35:43;;;;;;;108.40;43.38;;;1.70;91.90;;;;;;5045711;28;20305;-77
2023/01/26 00:38:12;;;;;;;115.40;43.85;;;1.70;91.90;;;;;;5046087;28;20040;-77
2023/01/26 00:40:39;;;;;;;110.60;44.13;;;1.70;91.90;;;;;;5044864;28;20017;-77
2023/01/26 00:43:05;;;;;;;113.45;43.33;;;1.70;91.90;;;;;;5044959;28;20513;-77
2023/01/26 00:45:30;;;;;;;110.70;46.15;;;1.70;91.90;;;;;;5047747;28;20044;-76
2023/01/26 00:47:56;;;;;;;112.20;43.47;;;1.70;91.90;;;;;;5046553;28;20041;-76
2023/01/26 00:50:22;;;;;;;99.65;40.55;;;1.80;91.90;;;;;;5044644;28;20025;-76
2023/01/26 00:52:47;;;;;;;113.00;43.97;;;1.80;91.90;;;;;;5045244;28;20025;-77
2023/01/26 00:55:13;;;;;;;117.35;44.95;;;1.80;91.90;;;;;;5046496;28;20650;-76
2023/01/26 00:57:39;;;;;;;113.45;44.95;;;1.80;91.80;;;;;;5043644;28;20132;-77
2023/01/26 01:00:06;;;;;;;104.55;42.88;;;1.80;91.80;;;;;;5047447;28;20459;-77
2023/01/26 01:02:32;;;;;;;107.82;42.58;;;1.80;91.80;;;;;;5045011;28;20032;-76
2023/01/26 01:04:57;;;;;;;103.93;42.30;;;1.80;91.80;;;;;;5044146;28;20028;-77
2023/01/26 01:07:23;;;;;;;105.57;41.17;;;1.80;91.80;;;;;;5048837;28;20024;-76
2023/01/26 01:09:49;;;;;;;107.15;42.80;;;1.80;91.80;;;;;;5042479;28;20025;-76
2023/01/26 01:12:15;;;;;;;102.85;41.85;;;1.80;91.70;;;;;;5042429;28;20033;-77
2023/01/26 01:14:40;;;;;;;106.13;41.42;;;1.80;91.80;;;;;;5047636;28;20103;-77
2023/01/26 01:17:06;;;;;;;100.93;41.60;;;1.90;91.80;;;;;;5049612;28;20033;-76
2023/01/26 01:19:32;;;;;;;95.85;39.00;;;1.80;91.80;;;;;;5039417;28;20017;-77
2023/01/26 01:21:58;;;;;;;97.65;39.50;;;1.90;91.80;;;;;;5041375;28;20098;-76
2023/01/26 01:24:23;;;;;;;101.50;41.72;;;1.90;91.90;;;;;;5044003;28;20024;-76
2023/01/26 01:26:49;;;;;;;99.20;39.53;;;1.90;91.80;;;;;;5045686;28;20218;-76
2023/01/26 01:29:15;;;;;;;94.78;39.58;;;1.90;91.80;;;;;;5046678;28;20013;-79
2023/01/26 01:31:42;;;;;;;96.22;38.25;;;1.80;91.80;;;;;;5041759;28;20025;-79
2023/01/26 01:34:07;;;;;;;93.63;38.88;;;1.80;91.70;;;;;;5044916;28;20679;-77
2023/01/26 01:36:33;;;;;;;93.35;36.90;;;1.80;91.70;;;;;;5046470;28;20033;-76
2023/01/26 01:39:00;;;;;;;93.60;37.50;;;1.90;91.80;;;;;;5054332;28;20547;-76
2023/01/26 01:41:25;;;;;;;96.03;38.78;;;1.80;91.80;;;;;;5048970;28;20500;-76
2023/01/26 01:44:10;;;;;;;90.65;37.45;;;1.80;91.90;;;;;;5046774;28;20021;-77
2023/01/26 01:46:36;;;;;;;93.30;36.97;;;1.80;91.90;;;;;;5049393;28;20067;-77
2023/01/26 01:49:12;;;;;;;97.30;38.13;;;1.90;91.90;;;;;;5042119;28;20103;-77
2023/01/26 01:52:02;;;;;;;88.78;35.30;;;1.90;91.80;;;;;;5049545;28;20897;-78
2023/01/26 01:54:40;;;;;;;96.25;39.00;;;1.90;91.80;;;;;;5034016;28;20055;-76
2023/01/26 01:57:14;;;;;;;94.05;37.20;;;1.90;91.90;;;;;;5038765;28;20037;-76
2023/01/26 01:59:45;;;;;;;96.65;36.78;;;1.90;91.90;;;;;;5044460;28;20064;-76
2023/01/26 02:02:11;;;;;;;85.85;37.45;;;1.90;91.80;;;;;;5047159;28;20047;-79
2023/01/26 02:04:36;;;;;;;87.03;36.65;;;1.90;91.80;;;;;;5046361;28;20631;-76
2023/01/26 02:07:03;;;;;;;87.85;36.00;;;1.90;91.90;;;;;;5051163;28;20032;-76
2023/01/26 02:12:25;;;;;;;81.47;34.03;;;2.00;91.70;;;;;;5039668;28;20044;-76
2023/01/26 02:14:52;;;;;;;90.95;35.65;;;1.90;91.60;;;;;;5047536;28;20379;-78
2023/01/26 02:17:18;;;;;;;96.85;36.10;;;1.90;91.70;;;;;;5040469;28;20590;-78
2023/01/26 02:20:15;;;;;;;83.85;36.08;;;1.90;91.60;;;;;;5043381;28;20082;-76
2023/01/26 02:23:05;;;;;;;84.68;34.90;;;1.90;91.60;;;;;;5047906;28;20080;-77
2023/01/26 02:25:46;;;;;;;85.03;35.17;;;1.90;91.70;;;;;;5042523;28;20141;-76
2023/01/26 02:28:12;;;;;;;81.95;34.83;;;1.90;91.70;;;;;;5041870;28;20365;-77
2023/01/26 02:30:38;;;;;;;85.07;33.95;;;1.90;91.70;;;;;;5044099;28;20021;-77
2023/01/26 02:33:03;;;;;;;78.80;33.03;;;1.90;91.70;;;;;;5044033;28;20104;-76
2023/01/26 02:35:29;;;;;;;81.63;32.50;;;1.90;91.70;;;;;;5047169;28;20036;-77
2023/01/26 02:37:55;;;;;;;76.05;32.17;;;1.90;91.60;;;;;;5046923;28;20095;-77
2023/01/26 02:40:39;;;;;;;83.85;32.00;;;1.90;91.60;;;;;;5044726;28;20492;-78
2023/01/26 02:43:05;;;;;;;75.60;31.85;;;1.80;91.70;;;;;;5049159;28;20017;-76
2023/01/26 02:45:32;;;;;;;77.00;31.85;;;1.80;91.70;;;;;;5045839;28;20037;-76
2023/01/26 02:48:03;;;;;;;79.18;32.55;;;1.90;91.80;;;;;;5042452;28;20044;-76
2023/01/26 02:50:29;;;;;;;77.40;31.52;;;1.90;91.80;;;;;;5042156;28;20021;-76
2023/01/26 02:52:55;;;;;;;81.00;32.50;;;1.90;91.70;;;;;;5047797;28;20317;-77
2023/01/26 02:55:21;;;;;;;79.47;33.38;;;1.90;91.80;;;;;;5045264;28;20108;-77
2023/01/26 02:57:48;;;;;;;79.57;34.08;;;1.90;91.70;;;;;;5042814;28;20441;-76
2023/01/26 03:00:17;;;;;;;71.75;31.65;;;1.90;91.70;;;;;;5045604;28;20078;-76
2023/01/26 03:02:43;;;;;;;80.07;33.75;;;1.90;91.70;;;;;;5045766;28;20029;-79
2023/01/26 03:05:09;;;;;;;77.65;32.65;;;1.90;91.70;;;;;;5043635;28;20025;-76
2023/01/26 03:07:35;;;;;;;77.10;33.50;;;1.90;91.70;;;;;;5044100;28;20041;-77
2023/01/26 03:10:01;;;;;;;76.70;33.85;;;1.90;91.70;;;;;;5042256;28;20419;-77
2023/01/26 03:12:27;;;;;;;82.93;32.63;;;1.90;91.80;;;;;;5043171;28;20038;-76
2023/01/26 03:17:37;;;;;;;76.97;34.63;;;1.90;91.80;;;;;;5048261;28;20038;-77
2023/01/26 03:28:21;;;;;;;77.67;35.13;;;2.00;91.90;;;;;;5043580;28;20040;-77
2023/01/26 03:30:47;;;;;;;84.68;32.53;;;2.00;91.80;;;;;;5037155;28;20278;-77
2023/01/26 03:33:13;;;;;;;82.72;34.10;;;2.10;91.80;;;;;;5045475;28;20438;-78
2023/01/26 03:35:39;;;;;;;83.97;35.58;;;2.10;91.80;;;;;;5040717;28;20028;-76
2023/01/26 03:38:04;;;;;;;82.45;34.28;;;2.10;91.80;;;;;;5043751;28;20029;-77
2023/01/26 03:56:59;;;;;;;81.38;34.72;;;2.00;91.70;;;;;;5032159;28;20112;-77
2023/01/26 03:59:58;;;;;;;79.97;34.83;;;2.10;91.80;;;;;;5043658;28;20269;-76
2023/01/26 04:10:30;;;;;;;83.53;33.80;;;2.10;91.80;;;;;;5036555;28;20044;-77
2023/01/26 04:21:32;;;;;;;78.45;34.20;;;2.10;91.80;;;;;;5039728;28;20400;-77
2023/01/26 04:23:58;;;;;;;79.00;32.63;;;2.10;91.70;;;;;;5042738;28;20087;-77
2023/01/26 04:26:33;;;;;;;74.45;32.92;;;2.10;91.80;;;;;;5040719;28;20088;-77
2023/01/26 04:29:00;;;;;;;78.85;32.90;;;2.20;91.80;;;;;;5045633;28;20441;-77
2023/01/26 04:31:25;;;;;;;75.88;32.92;;;2.10;91.70;;;;;;5039463;28;20600;-77
2023/01/26 04:33:51;;;;;;;74.13;32.05;;;2.10;91.80;;;;;;5035853;28;20112;-76
2023/01/26 04:36:17;;;;;;;71.40;31.33;;;2.10;91.80;;;;;;5040465;28;20127;-76
2023/01/26 04:38:42;;;;;;;69.13;32.05;;;2.20;91.70;;;;;;5041403;28;20021;-76
2023/01/26 04:41:08;;;;;;;71.75;31.80;;;2.20;91.70;;;;;;5035465;28;20140;-78
2023/01/26 04:43:34;;;;;;;73.72;32.67;;;2.20;91.70;;;;;;5038220;28;20113;-77
2023/01/26 04:46:04;;;;;;;68.13;31.75;;;2.10;91.70;;;;;;5039544;28;20049;-77
2023/01/26 04:48:31;;;;;;;70.53;32.63;;;2.20;91.70;;;;;;5034409;28;20079;-78
2023/01/26 04:51:02;;;;;;;67.72;30.73;;;2.20;91.70;;;;;;5040693;28;20661;-77
2023/01/26 04:53:28;;;;;;;71.93;32.45;;;2.20;91.70;;;;;;5042900;28;20124;-78
2023/01/26 04:55:54;;;;;;;69.80;31.77;;;2.20;91.70;;;;;;5040522;28;20212;-78
2023/01/26 04:58:20;;;;;;;67.63;31.65;;;2.20;91.60;;;;;;5040162;28;20026;-77
2023/01/26 05:00:54;;;;;;;66.90;30.40;;;2.20;91.60;;;;;;5043653;28;20092;-77
2023/01/26 05:03:22;;;;;;;71.07;32.17;;;2.20;91.60;;;;;;5044473;28;20048;-77
2023/01/26 05:05:49;;;;;;;66.05;31.02;;;2.20;91.60;;;;;;5047882;28;20243;-77
2023/01/26 05:08:15;;;;;;;67.88;31.23;;;2.20;91.60;;;;;;5046646;28;20354;-77
2023/01/26 05:10:41;;;;;;;68.03;32.67;;;2.10;91.60;;;;;;5049656;28;20153;-77
2023/01/26 05:13:07;;;;;;;70.38;29.67;;;2.10;91.60;;;;;;5048713;28;20069;-78
2023/01/26 05:15:33;;;;;;;70.38;30.85;;;2.10;91.70;;;;;;5050748;28;20399;-78
2023/01/26 05:17:59;;;;;;;70.22;31.70;;;2.10;91.70;;;;;;5042992;28;20021;-79
2023/01/26 05:20:25;;;;;;;73.57;32.33;;;2.10;91.80;;;;;;5048489;28;20024;-77
2023/01/26 05:22:51;;;;;;;71.63;31.70;;;2.10;91.70;;;;;;5045368;28;20013;-76
2023/01/26 05:25:16;;;;;;;70.95;31.48;;;2.10;91.70;;;;;;5037563;28;20044;-77
2023/01/26 05:27:42;;;;;;;73.25;32.60;;;2.10;91.90;;;;;;5043931;28;20469;-76
2023/01/26 05:30:09;;;;;;;75.97;32.75;;;2.10;91.80;;;;;;5044266;28;20029;-77
2023/01/26 05:32:35;;;;;;;72.18;31.02;;;2.10;91.90;;;;;;5036974;28;20064;-77
2023/01/26 05:35:02;;;;;;;73.32;33.00;;;2.20;91.90;;;;;;5047528;28;20025;-77
2023/01/26 05:37:28;;;;;;;73.05;31.98;;;2.20;91.90;;;;;;5044166;28;20041;-77
2023/01/26 05:39:54;;;;;;;69.78;30.00;;;2.20;91.90;;;;;;5039769;28;20082;-77
2023/01/26 05:42:20;;;;;;;70.95;31.10;;;2.20;91.90;;;;;;5034581;28;20025;-76
2023/01/26 05:44:46;;;;;;;69.38;30.35;;;2.20;91.90;;;;;;5034130;28;20025;-77
2023/01/26 05:47:12;;;;;;;73.63;31.52;;;2.20;91.90;;;;;;5035554;28;20305;-76
2023/01/26 05:49:41;;;;;;;76.20;34.20;;;2.30;92.00;;;;;;5040128;28;20870;-76
2023/01/26 05:52:11;;;;;;;71.20;30.92;;;2.30;91.90;;;;;;5037576;28;20021;-77
2023/01/26 05:54:37;;;;;;;76.75;32.17;;;2.30;92.00;;;;;;5043350;28;20416;-77
2023/01/26 05:57:03;;;;;;;77.70;34.00;;;2.30;92.00;;;;;;5036149;28;20045;-77
2023/01/26 05:59:28;;;;;;;67.78;31.90;;;2.30;92.00;;;;;;5041645;28;20028;-78
2023/01/26 06:01:58;;;;;;;76.32;32.92;;;2.30;91.90;;;;;;5035282;28;20029;-77
2023/01/26 06:04:24;;;;;;;80.57;32.58;;;2.30;92.00;;;;;;5046114;28;20024;-76
2023/01/26 06:06:52;;;;;;;74.72;32.25;;;2.30;92.00;;;;;;5046139;28;20044;-78
2023/01/26 06:09:18;;;;;;;74.65;31.95;;;2.30;91.90;;;;;;5045306;28;20013;-77
2023/01/26 06:11:44;;;;;;;72.25;32.03;;;2.30;92.10;;;;;;5040263;28;20060;-76
2023/01/26 06:14:10;;;;;;;72.65;31.35;;;2.30;92.10;;;;;;5045770;28;20033;-77
2023/01/26 06:16:36;;;;;;;71.15;31.52;;;2.30;92.10;;;;;;5037053;28;20569;-77
2023/01/26 06:19:02;;;;;;;66.82;29.50;;;2.30;92.10;;;;;;5038620;28;20116;-77
2023/01/26 06:21:27;;;;;;;63.63;29.10;;;2.30;92.10;;;;;;5033318;28;20037;-77
2023/01/26 06:23:53;;;;;;;70.65;31.48;;;2.40;92.10;;;;;;5041602;28;20025;-78
2023/01/26 06:26:19;;;;;;;64.53;28.88;;;2.30;92.10;;;;;;5046461;28;20443;-78
2023/01/26 06:28:44;;;;;;;64.10;29.50;;;2.30;92.10;;;;;;5046742;28;20112;-77
2023/01/26 06:31:10;;;;;;;64.00;29.08;;;2.40;92.20;;;;;;5036293;28;20025;-77
2023/01/26 06:33:37;;;;;;;71.07;30.52;;;2.40;92.10;;;;;;5043114;28;20461;-77
2023/01/26 06:36:11;;;;;;;61.22;28.90;;;2.40;92.10;;;;;;5037462;28;20410;-77
2023/01/26 06:38:37;;;;;;;64.70;30.90;;;2.40;92.10;;;;;;5035895;28;20021;-78
2023/01/26 06:41:05;;;;;;;64.28;29.13;;;2.40;92.20;;;;;;5034401;28;20033;-77
2023/01/26 06:43:32;;;;;;;64.65;30.20;;;2.40;92.20;;;;;;5034091;28;20064;-77
2023/01/26 06:45:58;;;;;;;64.80;30.20;;;2.40;92.20;;;;;;5040413;28;20038;-77
2023/01/26 06:48:25;;;;;;;63.03;29.33;;;2.40;92.20;;;;;;5037035;28;20127;-78
2023/01/26 06:50:52;;;;;;;59.45;28.58;;;2.50;92.20;;;;;;5039797;28;20029;-77
2023/01/26 06:53:35;;;;;;;61.63;28.33;;;2.50;92.10;;;;;;5037878;28;20397;-77
2023/01/26 06:56:01;;;;;;;66.90;30.02;;;2.50;92.20;;;;;;5037453;28;20318;-77
2023/01/26 06:58:27;;;;;;;58.30;28.25;;;2.50;92.30;;;;;;5038759;28;20029;-78
2023/01/26 07:00:54;;;;;;;62.05;30.65;;;2.50;92.20;;;;;;5042742;28;20117;-78
2023/01/26 07:03:19;;;;;;;70.22;34.78;;;2.50;92.20;;;;;;5036253;28;20017;-79
2023/01/26 07:05:45;;;;;;;74.53;37.35;;;2.50;92.20;;;;;;5042651;28;20041;-78
2023/01/26 07:08:11;;;;;;;68.78;33.85;;;2.40;92.00;;;;;;5038363;28;20138;-79
2023/01/26 07:10:37;;;;;;;67.57;31.35;;;2.40;92.20;;;;;;5032560;28;20033;-79
2023/01/26 07:13:04;;;;;;;64.78;30.00;;;2.50;92.20;;;;;;5042577;28;20104;-79
2023/01/26 07:15:30;;;;;;;68.72;32.70;;;2.50;92.30;;;;;;5040748;28;20650;-78
2023/01/26 07:17:57;;;;;;;70.10;31.55;;;2.60;92.30;;;;;;5026449;28;20333;-79
2023/01/26 07:20:23;;;;;;;67.00;31.65;;;2.60;92.40;;;;;;5040480;28;20052;-78
2023/01/26 07:22:49;;;;;;;66.30;31.88;;;2.70;92.40;;;;;;5041075;28;20100;-77
2023/01/26 07:25:16;;;;;;;67.95;31.65;;;2.70;92.40;;;;;;5033743;28;20529;-78
2023/01/26 07:27:42;;;;;;;70.05;32.05;;;2.80;92.30;;;;;;5039756;28;20025;-78
2023/01/26 07:30:09;;;;;;;68.03;31.80;;;2.80;92.40;;;;;;5033473;28;20380;-78
2023/01/26 07:32:35;;;;;;;74.32;33.85;;;2.90;92.30;;;;;;5037947;28;20075;-78
2023/01/26 07:35:01;;;;;;;75.45;32.55;;;2.80;92.30;;;;;;5040789;28;20496;-77
2023/01/26 07:37:28;;;;;;;69.85;32.80;;;2.90;92.30;;;;;;5036691;28;20037;-77
2023/01/26 07:39:53;;;;;;;68.63;32.05;;;2.90;92.20;;;;;;5040729;28;20072;-77
2023/01/26 07:42:19;;;;;;;70.30;32.08;;;2.90;92.10;;;;;;5039349;28;20099;-77
2023/01/26 07:44:45;;;;;;;78.00;31.33;;;2.90;92.00;;;;;;5043944;28;20029;-77
2023/01/26 07:47:11;;;;;;;74.95;32.08;;;2.90;92.10;;;;;;5042981;28;20349;-77
2023/01/26 07:49:36;;;;;;;81.55;34.13;;;2.80;92.10;;;;;;5045456;28;20680;-77
2023/01/26 07:52:04;;;;;;;79.15;34.80;;;2.90;92.40;;;;;;5042865;28;20730;-76
2023/01/26 07:54:30;;;;;;;84.63;36.22;;;2.90;92.50;;;;;;5043139;28;20412;-75
2023/01/26 07:56:55;;;;;;;86.93;35.20;;;3.00;92.70;;;;;;5041209;28;20041;-75
2023/01/26 07:59:22;;;;;;;90.43;34.78;;;3.10;92.80;;;;;;5047696;28;20021;-77
2023/01/26 08:01:48;;;;;;;102.03;39.50;;;3.10;93.00;;;;;;5042817;28;20041;-75
2023/01/26 08:04:14;;;;;;;103.47;41.00;;;3.20;93.20;;;;;;5044993;28;20021;-75
2023/01/26 08:06:39;;;;;;;99.20;39.88;;;3.20;93.50;;;;;;5038825;28;20049;-75
2023/01/26 08:09:05;;;;;;;98.43;39.75;;;3.30;93.70;;;;;;5040753;28;20396;-75
2023/01/26 08:11:31;;;;;;;103.50;38.63;;;3.40;93.80;;;;;;5034483;28;20025;-75
2023/01/26 08:13:56;;;;;;;113.35;40.80;;;3.50;93.90;;;;;;5042292;28;20029;-75
2023/01/26 08:16:22;;;;;;;123.25;42.67;;;3.50;94.00;;;;;;5042551;28;20045;-75
2023/01/26 08:18:48;;;;;;;131.82;43.90;;;3.60;94.10;;;;;;5025801;28;20312;-76
2023/01/26 08:21:15;;;;;;;113.90;41.38;;;3.70;94.30;;;;;;5033685;28;20033;-75
2023/01/26 08:23:41;;;;;;;107.80;39.50;;;3.80;94.40;;;;;;5037745;28;20024;-76
2023/01/26 08:26:10;;;;;;;115.88;42.15;;;3.90;94.50;;;;;;5036656;28;20041;-77
2023/01/26 08:28:36;;;;;;;117.82;43.22;;;4.10;94.60;;;;;;5032085;28;20313;-76
2023/01/26 08:31:10;;;;;;;113.85;39.85;;;4.10;94.70;;;;;;5028994;28;20036;-76
2023/01/26 08:33:36;;;;;;;111.60;38.88;;;4.20;94.70;;;;;;5034169;28;20033;-76
2023/01/26 08:36:03;;;;;;;117.80;38.90;;;4.30;94.80;;;;;;5035795;28;20399;-76
2023/01/26 08:38:30;;;;;;;114.75;38.53;;;4.50;94.90;;;;;;5034665;28;20017;-75
2023/01/26 08:40:57;;;;;;;105.25;37.28;;;4.60;95.00;;;;;;5033950;28;20516;-77
2023/01/26 08:43:22;;;;;;;97.63;36.42;;;4.70;95.10;;;;;;5038166;28;20124;-75
2023/01/26 08:45:48;;;;;;;105.63;38.15;;;4.80;95.10;;;;;;5034978;28;20033;-75
2023/01/26 08:48:14;;;;;;;108.90;34.83;;;4.90;95.20;;;;;;5040638;28;20037;-77
2023/01/26 08:50:39;;;;;;;97.93;36.60;;;5.00;95.20;;;;;;5031377;28;20163;-77
2023/01/26 08:53:05;;;;;;;94.85;33.40;;;5.00;95.20;;;;;;5041999;28;20112;-75
2023/01/26 08:55:32;;;;;;;105.07;35.72;;;5.10;95.20;;;;;;5040827;28;20064;-74
2023/01/26 08:57:58;;;;;;;89.40;32.78;;;5.20;95.20;;;;;;5039179;28;20027;-76
2023/01/26 09:00:24;;;;;;;100.60;32.42;;;5.30;95.10;;;;;;5041845;28;20025;-75
2023/01/26 09:02:56;;;;;;;92.38;33.00;;;5.30;95.10;;;;;;5039615;28;20103;-75
2023/01/26 09:05:22;;;;;;;91.10;32.35;;;5.40;95.10;;;;;;5037383;28;20079;-74
2023/01/26 09:07:47;;;;;;;87.68;30.52;;;5.40;95.10;;;;;;5038611;28;20033;-76
2023/01/26 09:10:13;;;;;;;74.18;29.17;;;5.40;95.10;;;;;;5036462;28;20021;-74
2023/01/26 09:12:39;;;;;;;73.38;24.13;;;5.50;95.10;;;;;;5041376;28;20460;-74
2023/01/26 09:15:06;;;;;;;70.55;26.70;;;5.60;95.20;;;;;;5044136;28;20387;-75
2023/01/26 09:17:31;;;;;;;68.88;26.17;;;5.60;95.10;;;;;;5039995;28;20060;-75
2023/01/26 09:19:57;;;;;;;66.10;24.73;;;5.70;95.10;;;;;;5041377;28;20032;-77
2023/01/26 09:22:23;;;;;;;63.88;20.23;;;5.80;95.10;;;;;;5042460;28;20025;-76
2023/01/26 09:24:48;;;;;;;59.83;21.30;;;5.80;95.00;;;;;;5042910;28;20021;-76
2023/01/26 09:27:14;;;;;;;66.72;22.00;;;5.80;94.90;;;;;;5035646;28;20026;-77
2023/01/26 09:29:40;;;;;;;60.03;19.17;;;5.90;94.80;;;;;;5038865;28;20111;-76
2023/01/26 09:32:05;;;;;;;49.22;16.10;;;6.00;94.80;;;;;;5037774;28;20025;-76
2023/01/26 09:34:31;;;;;;;50.53;15.38;;;6.00;94.70;;;;;;5041573;28;20032;-78
2023/01/26 09:36:57;;;;;;;48.25;13.90;;;6.00;94.60;;;;;;5039471;28;20030;-76
2023/01/26 09:39:22;;;;;;;42.17;11.77;;;6.10;94.50;;;;;;5036236;28;20033;-77
2023/01/26 09:42:24;;;;;;;50.53;11.88;;;6.10;94.20;;;;;;5041163;28;20028;-76
2023/01/26 09:45:10;;;;;;;42.25;8.75;;;6.20;94.00;;;;;;5038358;28;20032;-75
2023/01/26 09:47:56;;;;;;;40.65;9.40;;;6.20;93.60;;;;;;5044051;28;20540;-76
2023/01/26 09:50:46;;;;;;;31.60;7.45;;;6.30;93.40;;;;;;5036532;28;20029;-78
2023/01/26 09:53:32;;;;;;;38.38;8.82;;;6.40;93.00;;;;;;5010786;28;20049;-76
2023/01/26 09:55:58;;;;;;;31.30;7.60;;;6.40;92.60;;;;;;5035337;28;20040;-77
2023/01/26 09:58:34;;;;;;;31.35;8.15;;;6.50;92.20;;;;;;5031981;28;20402;-78
2023/01/26 10:01:02;;;;;;;27.30;6.50;;;6.50;91.60;;;;;;5042124;28;20117;-76
2023/01/26 10:03:58;;;;;;;33.53;6.75;;;6.60;91.10;;;;;;5030822;28;20030;-75
2023/01/26 10:06:27;;;;;;;30.52;6.53;;;6.60;90.40;;;;;;5027664;28;20037;-75
2023/01/26 10:08:55;;;;;;;24.38;6.28;;;6.70;90.00;;;;;;5030602;28;20500;-75
2023/01/26 10:11:41;;;;;;;33.40;6.40;;;6.80;89.30;;;;;;5033933;28;20149;-75
2023/01/26 10:14:38;;;;;;;31.85;6.10;;;6.80;89.30;;;;;;5032628;28;20051;-77
2023/01/26 10:17:06;;;;;;;33.85;6.40;;;6.80;89.10;;;;;;5040420;28;20067;-74
2023/01/26 10:19:42;;;;;;;21.42;5.15;;;6.80;88.90;;;;;;5032047;28;20257;-77
2023/01/26 10:22:44;;;;;;;25.65;5.00;;;6.80;88.60;;;;;;5029865;28;20059;-77
2023/01/26 10:25:18;;;;;;;27.08;4.93;;;6.90;88.40;;;;;;5016707;28;20068;-77
2023/01/26 10:27:47;;;;;;;26.80;6.55;;;6.90;87.90;;;;;;5034473;28;20056;-75
2023/01/26 10:30:16;;;;;;;30.17;7.15;;;6.90;87.60;;;;;;5032763;28;20049;-75
2023/01/26 10:32:44;;;;;;;27.10;6.03;;;7.00;87.90;;;;;;5033147;28;20029;-75
2023/01/26 10:35:16;;;;;;;30.27;7.30;;;7.00;87.60;;;;;;5034536;28;20601;-76
2023/01/26 10:37:42;;;;;;;25.85;5.82;;;7.10;87.60;;;;;;5025285;28;20017;-76
2023/01/26 10:40:09;;;;;;;31.52;6.18;;;7.00;87.30;;;;;;5033793;28;20337;-75
2023/01/26 10:42:36;;;;;;;29.85;5.90;;;7.10;87.40;;;;;;5029995;28;20124;-77
2023/01/26 10:45:06;;;;;;;28.23;6.22;;;7.10;87.30;;;;;;5031667;28;20071;-77
2023/01/26 10:47:32;;;;;;;28.48;5.38;;;7.10;87.30;;;;;;5034362;28;20481;-76
2023/01/26 10:50:26;;;;;;;31.20;5.50;;;7.10;87.40;;;;;;5036392;28;20017;-76
2023/01/26 10:53:01;;;;;;;25.90;6.28;;;7.10;87.60;;;;;;5027227;28;20056;-76
2023/01/26 10:55:28;;;;;;;30.08;6.07;;;7.10;87.80;;;;;;5038723;28;20686;-76
2023/01/26 10:57:53;;;;;;;26.20;5.80;;;7.10;87.70;;;;;;5036620;28;20416;-77
2023/01/26 11:00:32;;;;;;;28.08;6.28;;;7.10;87.60;;;;;;5039206;28;20009;-78
2023/01/26 11:03:13;;;;;;;25.20;5.95;;;7.00;87.80;;;;;;5035485;28;20051;-77
2023/01/26 11:05:38;;;;;;;29.25;6.07;;;7.10;87.80;;;;;;5037179;28;20062;-77
2023/01/26 11:08:34;;;;;;;30.20;5.55;;;7.00;87.90;;;;;;5037137;28;20017;-77
2023/01/26 11:11:00;;;;;;;;;;;7.00;87.70;;;;;;5027803;28;20057;-77
2023/01/26 11:13:26;;;;;;;28.98;5.32;;;7.00;87.90;;;;;;5040316;28;20343;-77
2023/01/26 11:16:04;;;;;;;33.15;6.78;;;7.10;88.10;;;;;;5044130;28;20045;-77
2023/01/26 11:18:59;;;;;;;27.90;5.10;;;7.20;87.80;;;;;;5044656;28;20018;-76
2023/01/26 11:21:39;;;;;;;23.60;5.65;;;7.10;87.60;;;;;;5010520;28;20120;-77
2023/01/26 11:24:20;;;;;;;30.33;5.97;;;7.20;87.50;;;;;;5041353;28;20031;-75
2023/01/26 11:27:07;;;;;;;27.73;4.63;;;7.20;87.60;;;;;;5039633;28;20222;-76
2023/01/26 11:29:53;;;;;;;29.13;5.13;;;7.20;87.10;;;;;;5027674;28;20025;-77
2023/01/26 11:32:57;;;;;;;27.02;5.97;;;7.20;87.20;;;;;;5021620;28;20025;-77
2023/01/26 11:35:38;;;;;;;27.42;5.70;;;7.20;86.80;;;;;;4959695;28;20040;-76
2023/01/26 11:38:32;;;;;;;25.95;5.15;;;7.20;86.60;;;;;;5017437;28;20079;-76
2023/01/26 11:41:30;;;;;;;28.50;6.35;;;7.20;86.50;;;;;;5019020;28;20045;-76
2023/01/26 11:44:10;;;;;;;21.17;4.95;;;7.30;86.30;;;;;;5021044;28;20432;-77
2023/01/26 11:46:51;;;;;;;30.67;7.95;;;7.30;86.30;;;;;;5021866;28;20083;-77
2023/01/26 11:49:36;;;;;;;29.20;4.97;;;7.30;86.50;;;;;;5020279;28;20052;-76
2023/01/26 11:52:22;;;;;;;24.80;5.40;;;7.30;86.00;;;;;;5017793;28;20203;-75
2023/01/26 11:54:57;;;;;;;33.63;5.38;;;7.40;86.00;;;;;;5018226;28;20497;-75
2023/01/26 11:57:28;;;;;;;27.13;5.15;;;7.40;86.00;;;;;;5024609;28;20025;-76
2023/01/26 12:00:18;;;;;;;26.77;5.30;;;7.40;85.60;;;;;;5021406;28;20029;-77
2023/01/26 12:03:06;;;;;;;20.77;5.80;;;7.40;85.70;;;;;;5017744;28;20048;-77
2023/01/26 12:06:05;;;;;;;22.13;5.78;;;7.50;85.60;;;;;;4997229;28;20322;-77
2023/01/26 12:08:51;;;;;;;27.77;6.05;;;7.50;84.30;;;;;;5016909;28;20473;-77
2023/01/26 12:11:32;;;;;;;21.15;4.55;;;7.60;84.40;;;;;;5024100;28;20052;-76
2023/01/26 12:14:13;;;;;;;21.95;5.25;;;7.70;83.10;;;;;;5034562;28;20435;-77
2023/01/26 12:16:51;;;;;;;22.35;4.53;;;7.70;82.90;;;;;;5041917;28;20049;-78
2023/01/26 12:19:31;;;;;;;20.63;4.63;;;7.60;81.50;;;;;;5028140;28;20044;-77
2023/01/26 12:22:03;;;;;;;22.10;4.22;;;7.60;81.40;;;;;;5035589;28;20064;-78
2023/01/26 12:24:54;;;;;;;20.10;4.25;;;7.70;80.50;;;;;;5024361;28;20094;-77
2023/01/26 12:27:37;;;;;;;24.42;5.28;;;7.80;80.40;;;;;;5037362;28;20546;-77
2023/01/26 12:30:15;;;;;;;24.48;5.85;;;7.70;80.90;;;;;;5033869;28;20023;-77
2023/01/26 12:32:41;;;;;;;26.15;5.95;;;7.70;81.40;;;;;;5029622;28;20043;-77
2023/01/26 12:35:10;;;;;;;23.58;5.65;;;7.70;81.50;;;;;;5034919;28;20037;-77
2023/01/26 12:38:05;;;;;;;20.42;4.13;;;7.70;81.10;;;;;;5027203;28;20112;-76
2023/01/26 12:41:04;;;;;;;22.48;5.53;;;7.60;81.00;;;;;;5018342;28;20044;-75
2023/01/26 12:43:54;;;;;;;20.20;4.45;;;7.60;81.20;;;;;;5022853;28;20026;-77
2023/01/26 12:46:23;;;;;;;21.10;5.10;;;7.70;81.20;;;;;;5034320;28;20052;-77
2023/01/26 12:48:56;;;;;;;25.20;5.35;;;7.80;81.70;;;;;;5038334;28;20045;-78
2023/01/26 12:51:28;;;;;;;25.17;4.40;;;7.80;81.20;;;;;;5039180;28;20025;-79
2023/01/26 12:54:03;;;;;;;23.27;4.50;;;7.70;81.60;;;;;;5031673;28;20104;-77
2023/01/26 12:56:57;;;;;;;23.38;5.45;;;7.80;81.80;;;;;;5031092;28;20359;-84
2023/01/26 12:59:35;;;;;;;32.08;4.53;;;7.80;81.70;;;;;;5035301;28;20028;-77
2023/01/26 13:02:30;;;;;;;24.55;4.75;;;7.80;81.50;;;;;;5031855;28;20035;-76
2023/01/26 13:05:02;;;;;;;20.30;4.45;;;7.70;81.30;;;;;;5032407;28;20021;-79
2023/01/26 13:07:35;;;;;;;21.50;3.85;;;7.60;81.60;;;;;;5029932;28;20128;-79
2023/01/26 13:10:07;;;;;;;20.00;4.80;;;7.60;81.40;;;;;;5034964;28;20075;-79
2023/01/26 13:12:53;;;;;;;21.67;5.75;;;7.60;81.40;;;;;;5041187;28;20472;-79
2023/01/26 13:15:23;;;;;;;27.17;5.80;;;7.70;81.50;;;;;;5039869;28;20067;-79
2023/01/26 13:18:00;;;;;;;22.23;5.13;;;7.70;81.30;;;;;;5039007;28;20040;-76
2023/01/26 13:20:46;;;;;;;20.58;4.75;;;7.90;81.50;;;;;;5029118;28;20041;-77
2023/01/26 13:23:31;;;;;;;;;;;7.90;80.70;;;;;;5030000;28;20024;-76
2023/01/26 13:26:13;;;;;;;19.75;4.03;;;8.10;80.60;;;;;;5030931;28;20199;-75
2023/01/26 13:28:39;;;;;;;19.70;4.90;;;8.30;79.00;;;;;;5034559;28;20032;-75
2023/01/26 13:31:06;;;;;;;17.55;4.03;;;8.40;79.30;;;;;;5035568;28;20454;-75
2023/01/26 13:33:32;;;;;;;18.65;4.25;;;8.50;78.60;;;;;;5032801;28;20032;-75
2023/01/26 13:36:02;;;;;;;19.58;4.03;;;8.50;77.70;;;;;;5039026;28;20639;-75
2023/01/26 13:38:34;;;;;;;20.42;4.80;;;8.40;77.60;;;;;;5042161;28;20035;-76
2023/01/26 13:41:02;;;;;;;17.40;3.95;;;8.40;78.70;;;;;;5036193;28;20068;-75
2023/01/26 13:44:09;;;;;;;20.17;4.35;;;8.50;78.00;;;;;;5047171;28;20016;-77